Terminal Aerodrome Forecast
Issued by NWS

Home | Current Version | Previous Version | Text Only | Print | Product List | Glossary Off
Versions: 1 2 3 4 5 6 7 8 9 10 11 12 13 14

000
FTUS43 KICT 140500
TAFHUT
TAF
KHUT 140522Z 1406/1506 15007KT P6SM BKN200
     FM141500 17014G20KT P6SM BKN200
     FM150100 16010KT P6SM OVC100=

USA.gov is the U.S. government's official web portal to all federal, state and local government web resources and services.